createdAt,value
2017-10-28T00:00:01.905Z,69.50
2017-10-28T00:02:29.340Z,69.70
2017-10-28T00:04:56.782Z,69.80
2017-10-28T00:07:24.705Z,70.10
2017-10-28T00:09:52.164Z,70.10
2017-10-28T00:12:19.613Z,70.10
2017-10-28T00:14:47.076Z,70.20
2017-10-28T00:17:14.540Z,70.40
2017-10-28T00:19:42.642Z,70.20
2017-10-28T00:22:10.087Z,70.10
2017-10-28T00:24:37.532Z,70.20
2017-10-28T00:27:04.986Z,70.10
2017-10-28T00:29:32.436Z,70.10
2017-10-28T00:32:05.534Z,70.20
2017-10-28T00:34:38.700Z,70.30
2017-10-28T00:37:06.640Z,70.10
2017-10-28T00:39:34.101Z,70.10
2017-10-28T00:42:01.584Z,70.30
2017-10-28T00:44:29.062Z,70.10
2017-10-28T00:46:56.997Z,70.20
2017-10-28T00:49:24.440Z,70.20
2017-10-28T00:51:51.895Z,70.20
2017-10-28T00:54:19.556Z,70.00
2017-10-28T00:56:46.995Z,69.90
2017-10-28T00:59:14.460Z,70.00
2017-10-28T01:01:41.951Z,70.00
2017-10-28T01:04:09.400Z,70.00
2017-10-28T01:06:36.836Z,70.10
2017-10-28T01:09:04.859Z,70.30
2017-10-28T01:11:32.302Z,70.50
2017-10-28T01:13:59.873Z,70.40
2017-10-28T01:16:27.320Z,70.40
2017-10-28T01:18:54.804Z,70.60
2017-10-28T01:21:22.361Z,70.80
2017-10-28T01:23:50.363Z,70.90
2017-10-28T01:26:17.834Z,71.00
2017-10-28T01:28:45.373Z,71.00
2017-10-28T01:31:12.806Z,71.10
2017-10-28T01:33:40.516Z,71.20
2017-10-28T01:36:07.945Z,71.20
2017-10-28T01:38:35.433Z,71.30
2017-10-28T01:41:02.868Z,71.70
2017-10-28T01:43:30.309Z,71.60
2017-10-28T01:45:57.749Z,71.70
2017-10-28T01:48:25.638Z,71.80
2017-10-28T01:50:53.479Z,71.90
2017-10-28T01:53:21.017Z,71.90
2017-10-28T01:55:49.195Z,71.80
2017-10-28T01:58:16.772Z,71.90
2017-10-28T02:00:44.223Z,72.10
2017-10-28T02:03:11.684Z,72.30
2017-10-28T02:05:39.144Z,72.40
2017-10-28T02:08:06.616Z,72.50
2017-10-28T02:10:34.035Z,72.60
2017-10-28T02:13:01.454Z,72.70
2017-10-28T02:15:29.088Z,72.90
2017-10-28T02:17:56.541Z,72.90
2017-10-28T02:20:24.010Z,73.00
2017-10-28T02:22:51.734Z,73.00
2017-10-28T02:25:19.587Z,72.90
2017-10-28T02:27:47.025Z,72.90
2017-10-28T02:30:15.726Z,72.80
2017-10-28T02:32:43.161Z,72.90
2017-10-28T02:35:10.610Z,72.60
2017-10-28T02:37:38.075Z,72.40
2017-10-28T02:40:05.521Z,72.20
2017-10-28T02:42:32.960Z,72.10
2017-10-28T02:45:00.890Z,72.00
2017-10-28T02:47:28.347Z,72.00
2017-10-28T02:49:55.812Z,72.20
2017-10-28T02:52:23.260Z,72.20
2017-10-28T02:54:50.733Z,72.40
2017-10-28T02:57:18.167Z,72.50
2017-10-28T02:59:45.913Z,72.50
2017-10-28T03:02:13.738Z,72.60
2017-10-28T03:04:41.182Z,72.50
2017-10-28T03:07:08.613Z,72.70
2017-10-28T03:09:36.060Z,73.10
2017-10-28T03:12:03.913Z,73.40
2017-10-28T03:14:31.357Z,73.40
2017-10-28T03:16:58.807Z,73.60
2017-10-28T03:19:26.253Z,73.70
2017-10-28T03:21:53.688Z,73.70
2017-10-28T03:24:21.164Z,73.70
2017-10-28T03:26:49.064Z,73.90
2017-10-28T03:29:16.525Z,73.90
2017-10-28T03:31:44.175Z,73.80
2017-10-28T03:34:11.618Z,73.80
2017-10-28T03:36:39.046Z,73.70
2017-10-28T03:39:06.582Z,73.70
2017-10-28T03:41:34.039Z,73.50
2017-10-28T03:44:01.524Z,73.30
2017-10-28T03:46:28.999Z,73.30
2017-10-28T03:48:56.443Z,73.20
2017-10-28T03:51:23.877Z,72.90
2017-10-28T03:53:51.642Z,73.00
2017-10-28T03:56:19.120Z,73.00
2017-10-28T03:58:46.678Z,73.00
2017-10-28T04:01:14.137Z,72.80
2017-10-28T04:03:41.592Z,72.90
2017-10-28T04:06:09.028Z,72.80
2017-10-28T04:08:36.853Z,72.30
2017-10-28T04:11:04.304Z,72.30
2017-10-28T04:13:31.886Z,72.30
2017-10-28T04:15:59.391Z,72.10
2017-10-28T04:18:26.860Z,71.90
2017-10-28T04:20:54.363Z,71.80
2017-10-28T04:23:21.827Z,71.80
2017-10-28T04:25:49.307Z,71.80
2017-10-28T04:28:16.818Z,71.90
2017-10-28T04:30:45.441Z,71.70
2017-10-28T04:33:12.981Z,71.40
2017-10-28T04:35:40.461Z,71.20
2017-10-28T04:38:07.944Z,71.20
2017-10-28T04:40:35.436Z,71.30
2017-10-28T04:43:03.292Z,71.20
2017-10-28T04:45:31.253Z,70.90
2017-10-28T04:47:58.738Z,70.90
2017-10-28T04:50:26.693Z,70.90
2017-10-28T04:52:54.607Z,70.80
2017-10-28T04:55:22.092Z,70.80
2017-10-28T04:57:49.610Z,70.80
2017-10-28T05:00:17.467Z,70.60
2017-10-28T05:02:45.341Z,70.50
2017-10-28T05:05:12.819Z,70.50
2017-10-28T05:07:40.299Z,70.50
2017-10-28T05:10:07.792Z,70.50
2017-10-28T05:12:36.238Z,70.50
2017-10-28T05:15:03.732Z,70.40
2017-10-28T05:17:31.234Z,70.40
2017-10-28T05:19:58.718Z,70.20
2017-10-28T05:22:26.213Z,70.20
2017-10-28T05:24:53.811Z,70.30
2017-10-28T05:27:21.407Z,70.40
2017-10-28T05:29:48.910Z,70.50
2017-10-28T05:32:16.449Z,70.60
2017-10-28T05:34:43.970Z,70.80
2017-10-28T05:37:11.473Z,71.10
2017-10-28T05:39:39.014Z,71.20
2017-10-28T05:42:07.218Z,71.50
2017-10-28T05:44:34.662Z,71.60
2017-10-28T05:47:02.155Z,71.70
2017-10-28T05:49:29.676Z,71.80
2017-10-28T05:51:57.168Z,71.90
2017-10-28T05:54:24.635Z,72.10
2017-10-28T05:56:52.150Z,72.20
2017-10-28T05:59:19.587Z,72.50
2017-10-28T06:01:47.063Z,72.60
2017-10-28T06:04:14.648Z,72.80
2017-10-28T06:06:42.176Z,72.80
2017-10-28T06:09:09.847Z,72.90
2017-10-28T06:11:37.443Z,73.00
2017-10-28T06:14:05.401Z,73.00
2017-10-28T06:16:33.572Z,73.00
2017-10-28T06:19:01.072Z,73.10
2017-10-28T06:21:28.916Z,73.10
2017-10-28T06:23:56.693Z,73.10
2017-10-28T06:26:24.586Z,72.80
2017-10-28T06:28:52.092Z,72.80
2017-10-28T06:31:19.605Z,72.90
2017-10-28T06:33:47.522Z,72.70
2017-10-28T06:36:15.158Z,72.70
2017-10-28T06:38:42.645Z,72.50
2017-10-28T06:41:10.118Z,72.50
2017-10-28T06:43:38.522Z,72.40
2017-10-28T06:46:06.231Z,72.20
2017-10-28T06:48:33.755Z,72.00
2017-10-28T06:51:01.209Z,72.00
2017-10-28T06:53:28.734Z,71.90
2017-10-28T06:55:56.200Z,72.00
2017-10-28T06:58:23.940Z,72.00
2017-10-28T07:00:51.869Z,71.60
2017-10-28T07:03:19.471Z,71.60
2017-10-28T07:05:47.422Z,71.70
2017-10-28T07:08:15.008Z,71.70
2017-10-28T07:10:44.726Z,71.80
2017-10-28T07:13:12.574Z,72.00
2017-10-28T07:15:40.128Z,72.00
2017-10-28T07:18:07.620Z,71.90
2017-10-28T07:20:35.069Z,71.90
2017-10-28T07:23:02.544Z,71.90
2017-10-28T07:25:31.194Z,72.10
2017-10-28T07:27:58.688Z,72.10
2017-10-28T07:30:26.164Z,71.90
2017-10-28T07:32:54.029Z,71.80
2017-10-28T07:35:21.986Z,71.60
2017-10-28T07:37:49.558Z,71.60
2017-10-28T07:40:17.049Z,71.50
2017-10-28T07:42:44.957Z,71.60
2017-10-28T07:45:12.557Z,71.60
2017-10-28T07:47:40.020Z,71.70
2017-10-28T07:50:07.888Z,71.60
2017-10-28T07:52:35.831Z,71.70
2017-10-28T07:55:03.499Z,71.70
2017-10-28T07:57:30.976Z,71.60
2017-10-28T07:59:58.430Z,71.20
2017-10-28T08:02:25.991Z,71.30
2017-10-28T08:04:53.473Z,71.10
2017-10-28T08:07:20.960Z,71.00
2017-10-28T08:09:48.793Z,70.80
2017-10-28T08:12:16.283Z,70.80
2017-10-28T08:14:45.274Z,70.40
2017-10-28T08:17:12.772Z,70.40
2017-10-28T08:19:40.294Z,70.40
2017-10-28T08:22:08.176Z,70.00
2017-10-28T08:24:36.027Z,70.00
2017-10-28T08:27:04.424Z,70.00
2017-10-28T08:29:32.278Z,69.50
2017-10-28T08:31:59.763Z,69.50
2017-10-28T08:34:27.629Z,69.40
2017-10-28T08:36:55.505Z,69.20
2017-10-28T08:39:23.372Z,69.00
2017-10-28T08:41:50.827Z,69.00
2017-10-28T08:44:18.368Z,68.80
2017-10-28T08:46:45.847Z,69.00
2017-10-28T08:49:13.321Z,68.00
2017-10-28T08:51:41.274Z,68.00
2017-10-28T08:54:08.780Z,68.00
2017-10-28T08:56:36.285Z,67.30
2017-10-28T08:59:03.696Z,67.70
2017-10-28T09:01:31.215Z,66.90
2017-10-28T09:03:58.699Z,67.20
2017-10-28T09:06:26.172Z,67.50
2017-10-28T09:08:54.379Z,67.50
2017-10-28T09:11:21.849Z,67.50
2017-10-28T09:13:49.354Z,67.40
2017-10-28T09:16:16.834Z,67.40
2017-10-28T09:18:44.306Z,67.30
2017-10-28T09:21:12.152Z,67.10
2017-10-28T09:23:41.303Z,67.10
2017-10-28T09:26:08.826Z,66.80
2017-10-28T09:28:36.310Z,65.60
2017-10-28T09:31:03.788Z,64.90
2017-10-28T09:33:31.305Z,65.50
2017-10-28T09:35:58.769Z,64.90
2017-10-28T09:38:26.222Z,64.60
2017-10-28T09:40:54.068Z,64.40
2017-10-28T09:43:21.526Z,64.30
2017-10-28T09:45:48.987Z,64.00
2017-10-28T09:48:16.511Z,64.20
2017-10-28T09:50:44.380Z,63.90
2017-10-28T09:53:12.649Z,64.10
2017-10-28T09:55:40.109Z,64.10
2017-10-28T09:58:07.649Z,64.00
2017-10-28T10:00:35.129Z,64.00
2017-10-28T10:03:03.672Z,64.30
2017-10-28T10:05:31.200Z,64.20
2017-10-28T10:07:58.638Z,64.10
2017-10-28T10:10:26.079Z,63.60
2017-10-28T10:12:53.559Z,62.80
2017-10-28T10:15:21.083Z,63.20
2017-10-28T10:17:48.933Z,62.80
2017-10-28T10:20:17.373Z,62.20
2017-10-28T10:22:45.003Z,62.30
2017-10-28T10:25:12.554Z,62.40
2017-10-28T10:27:40.084Z,62.70
2017-10-28T10:30:07.692Z,62.00
2017-10-28T10:32:35.096Z,62.20
2017-10-28T10:35:02.563Z,62.40
2017-10-28T10:37:30.530Z,62.00
2017-10-28T10:39:58.089Z,62.10
2017-10-28T10:42:25.749Z,61.20
2017-10-28T10:44:53.208Z,61.30
2017-10-28T10:47:20.708Z,61.80
2017-10-28T10:49:48.702Z,61.80
2017-10-28T10:52:16.934Z,61.20
2017-10-28T10:54:44.412Z,61.20
2017-10-28T10:57:12.350Z,61.70
2017-10-28T10:59:39.818Z,61.40
2017-10-28T11:02:07.319Z,61.30
2017-10-28T11:04:35.236Z,61.40
2017-10-28T11:07:03.644Z,61.40
2017-10-28T11:09:31.065Z,60.60
2017-10-28T11:11:58.537Z,61.00
2017-10-28T11:14:25.984Z,61.50
2017-10-28T11:16:53.418Z,61.30
2017-10-28T11:19:21.266Z,61.30
2017-10-28T11:21:48.689Z,61.30
2017-10-28T11:24:16.131Z,61.40
2017-10-28T11:26:43.587Z,60.90
2017-10-28T11:29:11.281Z,61.30
2017-10-28T11:31:38.723Z,62.00
2017-10-28T11:34:06.164Z,62.00
2017-10-28T11:36:33.984Z,61.80
2017-10-28T11:39:01.416Z,61.70
2017-10-28T11:41:28.858Z,61.20
2017-10-28T11:43:56.689Z,60.70
2017-10-28T11:46:24.123Z,60.70
2017-10-28T11:48:51.603Z,61.30
2017-10-28T11:51:19.042Z,61.60
2017-10-28T11:53:46.490Z,61.50
2017-10-28T11:56:13.918Z,61.90
2017-10-28T11:58:41.340Z,61.70
2017-10-28T12:01:08.812Z,61.50
2017-10-28T12:03:36.263Z,61.50
2017-10-28T12:06:03.691Z,61.70
2017-10-28T12:08:31.527Z,62.00
2017-10-28T12:10:58.974Z,62.00
2017-10-28T12:13:26.421Z,62.10
2017-10-28T12:15:53.845Z,62.10
2017-10-28T12:18:21.288Z,61.90
2017-10-28T12:20:48.800Z,62.30
2017-10-28T12:23:17.126Z,62.40
2017-10-28T12:25:44.575Z,62.30
2017-10-28T12:28:12.011Z,62.10
2017-10-28T12:30:39.450Z,62.00
2017-10-28T12:33:06.888Z,61.70
2017-10-28T12:35:34.703Z,61.80
2017-10-28T12:38:02.982Z,61.80
2017-10-28T12:40:31.262Z,62.00
2017-10-28T12:42:58.734Z,61.50
2017-10-28T12:45:26.183Z,61.50
2017-10-28T12:47:53.632Z,61.50
2017-10-28T12:50:22.032Z,61.70
2017-10-28T12:52:49.468Z,61.80
2017-10-28T12:55:16.904Z,61.70
2017-10-28T12:57:44.743Z,61.00
2017-10-28T13:00:12.160Z,61.00
2017-10-28T13:02:39.599Z,61.30
2017-10-28T13:05:07.425Z,61.70
2017-10-28T13:07:34.985Z,61.70
2017-10-28T13:10:02.396Z,61.40
2017-10-28T13:12:30.248Z,60.80
2017-10-28T13:14:57.681Z,60.80
2017-10-28T13:17:25.108Z,61.30
2017-10-28T13:19:52.574Z,60.90
2017-10-28T13:22:20.496Z,61.00
2017-10-28T13:24:48.046Z,60.80
2017-10-28T13:27:16.467Z,60.60
2017-10-28T13:29:44.304Z,60.90
2017-10-28T13:32:11.749Z,60.90
2017-10-28T13:34:39.210Z,60.80
2017-10-28T13:37:07.101Z,60.80
2017-10-28T13:39:34.572Z,60.70
2017-10-28T13:42:02.059Z,60.50
2017-10-28T13:44:29.988Z,60.70
2017-10-28T13:46:57.461Z,60.70
2017-10-28T13:49:24.915Z,60.20
2017-10-28T13:51:52.364Z,60.00
2017-10-28T13:54:19.814Z,60.00
2017-10-28T13:56:47.246Z,60.40
2017-10-28T13:59:15.855Z,60.60
2017-10-28T14:01:43.341Z,60.60
2017-10-28T14:04:10.788Z,60.10
2017-10-28T14:06:38.428Z,59.60
2017-10-28T14:09:06.278Z,60.10
2017-10-28T14:11:33.742Z,60.10
2017-10-28T14:14:01.175Z,60.20
2017-10-28T14:16:28.639Z,59.90
2017-10-28T14:18:56.177Z,59.90
2017-10-28T14:21:23.612Z,59.50
2017-10-28T14:23:51.065Z,59.30
2017-10-28T14:26:18.910Z,59.50
2017-10-28T14:28:46.357Z,59.50
2017-10-28T14:31:13.821Z,59.60
2017-10-28T14:33:41.258Z,59.80
2017-10-28T14:36:08.699Z,59.60
2017-10-28T14:38:36.153Z,59.50
2017-10-28T14:41:04.013Z,59.30
2017-10-28T14:43:31.871Z,59.60
2017-10-28T14:45:59.325Z,59.60
2017-10-28T14:48:26.860Z,60.30
2017-10-28T14:50:54.305Z,60.00
2017-10-28T14:53:21.821Z,59.60
2017-10-28T14:55:49.257Z,60.00
2017-10-28T14:58:16.770Z,59.70
2017-10-28T15:00:44.821Z,60.00
2017-10-28T15:03:13.148Z,59.90
2017-10-28T15:05:41.067Z,59.90
2017-10-28T15:08:08.613Z,60.20
2017-10-28T15:10:36.506Z,60.20
2017-10-28T15:13:04.431Z,59.70
2017-10-28T15:15:31.888Z,59.70
2017-10-28T15:18:02.611Z,59.80
2017-10-28T15:20:30.066Z,60.10
2017-10-28T15:22:57.503Z,60.00
2017-10-28T15:25:25.422Z,60.40
2017-10-28T15:27:53.149Z,60.50
2017-10-28T15:30:21.002Z,60.40
2017-10-28T15:32:48.449Z,60.40
2017-10-28T15:35:15.882Z,60.20
2017-10-28T15:37:43.343Z,60.20
2017-10-28T15:40:10.786Z,60.40
2017-10-28T15:42:38.235Z,60.50
2017-10-28T15:45:06.255Z,60.40
2017-10-28T15:47:33.694Z,60.40
2017-10-28T15:50:01.143Z,60.60
2017-10-28T15:52:28.993Z,60.70
2017-10-28T15:54:56.520Z,60.70
2017-10-28T15:57:23.956Z,60.80
2017-10-28T15:59:52.339Z,60.60
2017-10-28T16:02:19.797Z,60.80
2017-10-28T16:04:47.236Z,60.80
2017-10-28T16:07:16.110Z,60.80
2017-10-28T16:09:43.552Z,60.70
2017-10-28T16:12:11.017Z,60.80
2017-10-28T16:14:38.437Z,60.90
2017-10-28T16:17:05.936Z,60.80
2017-10-28T16:19:33.353Z,61.10
2017-10-28T16:22:00.851Z,61.00
2017-10-28T16:24:28.324Z,61.10
2017-10-28T16:26:55.781Z,61.10
2017-10-28T16:29:23.320Z,61.20
2017-10-28T16:31:50.814Z,61.20
2017-10-28T16:34:18.364Z,61.30
2017-10-28T16:36:45.820Z,61.30
2017-10-28T16:39:13.228Z,61.40
2017-10-28T16:41:41.164Z,61.70
2017-10-28T16:44:08.643Z,61.70
2017-10-28T16:46:36.071Z,61.80
2017-10-28T16:49:03.546Z,62.00
2017-10-28T16:51:31.015Z,61.80
2017-10-28T16:53:58.436Z,61.90
2017-10-28T16:56:25.869Z,62.00
2017-10-28T16:58:53.708Z,62.20
2017-10-28T17:01:21.145Z,62.20
2017-10-28T17:03:48.652Z,62.30
2017-10-28T17:06:16.189Z,62.40
2017-10-28T17:08:43.635Z,62.40
2017-10-28T17:11:11.220Z,62.50
2017-10-28T17:13:39.987Z,62.50
2017-10-28T17:16:07.411Z,62.50
2017-10-28T17:18:35.335Z,62.60
2017-10-28T17:21:02.885Z,62.60
2017-10-28T17:23:30.366Z,62.40
2017-10-28T17:25:58.145Z,62.30
2017-10-28T17:28:25.737Z,62.40
2017-10-28T17:30:53.569Z,62.60
2017-10-28T17:33:21.074Z,62.60
2017-10-28T17:35:48.611Z,62.70
2017-10-28T17:38:16.136Z,63.00
2017-10-28T17:40:44.165Z,63.10
2017-10-28T17:43:11.785Z,63.40
2017-10-28T17:45:39.219Z,63.70
2017-10-28T17:48:06.709Z,63.80
2017-10-28T17:50:34.899Z,63.90
2017-10-28T17:53:02.336Z,64.10
2017-10-28T17:55:29.780Z,64.30
2017-10-28T17:57:57.387Z,64.40
2017-10-28T18:00:24.823Z,64.50
2017-10-28T18:02:52.295Z,64.60
2017-10-28T18:05:20.071Z,64.90
2017-10-28T18:07:47.533Z,65.20
2017-10-28T18:10:16.864Z,65.50
2017-10-28T18:12:44.570Z,65.80
2017-10-28T18:15:12.429Z,66.30
2017-10-28T18:17:39.864Z,66.30
2017-10-28T18:20:07.436Z,66.70
2017-10-28T18:22:34.895Z,66.80
2017-10-28T18:25:02.459Z,67.10
2017-10-28T18:27:29.945Z,67.50
2017-10-28T18:29:57.380Z,67.50
2017-10-28T18:32:24.846Z,67.40
2017-10-28T18:34:52.929Z,67.60
2017-10-28T18:37:20.350Z,67.80
2017-10-28T18:39:47.798Z,68.10
2017-10-28T18:42:15.265Z,68.40
2017-10-28T18:44:42.705Z,69.00
2017-10-28T18:47:10.922Z,69.20
2017-10-28T18:49:38.369Z,69.20
2017-10-28T18:52:05.797Z,69.10
2017-10-28T18:54:33.631Z,68.60
2017-10-28T18:57:01.177Z,68.60
2017-10-28T18:59:28.686Z,68.40
2017-10-28T19:01:56.097Z,68.10
2017-10-28T19:04:24.228Z,68.30
2017-10-28T19:06:51.678Z,68.50
2017-10-28T19:09:19.095Z,68.50
2017-10-28T19:11:46.551Z,69.00
2017-10-28T19:14:13.999Z,69.20
2017-10-28T19:16:41.492Z,69.40
2017-10-28T19:19:10.467Z,69.80
2017-10-28T19:21:37.931Z,70.10
2017-10-28T19:24:05.383Z,70.70
2017-10-28T19:26:33.669Z,71.20
2017-10-28T19:29:01.126Z,72.00
2017-10-28T19:31:28.557Z,72.40
2017-10-28T19:33:56.488Z,73.00
2017-10-28T19:36:24.614Z,73.00
2017-10-28T19:38:52.633Z,73.60
2017-10-28T19:41:20.100Z,73.60
2017-10-28T19:43:47.523Z,73.70
2017-10-28T19:46:14.963Z,73.50
2017-10-28T19:48:42.844Z,73.90
2017-10-28T19:51:10.768Z,73.60
2017-10-28T19:53:38.254Z,73.60
2017-10-28T19:56:05.705Z,73.60
2017-10-28T19:58:33.155Z,73.60
2017-10-28T20:01:00.672Z,73.40
2017-10-28T20:03:28.127Z,73.40
2017-10-28T20:05:55.978Z,73.90
2017-10-28T20:08:23.416Z,73.90
2017-10-28T20:10:51.690Z,74.00
2017-10-28T20:13:21.528Z,74.20
2017-10-28T20:15:48.964Z,74.00
2017-10-28T20:18:16.434Z,73.60
2017-10-28T20:20:43.884Z,73.80
2017-10-28T20:23:11.330Z,73.60
2017-10-28T20:25:38.796Z,73.40
2017-10-28T20:28:07.299Z,73.30
2017-10-28T20:30:34.771Z,73.70
2017-10-28T20:33:02.271Z,73.80
2017-10-28T20:35:30.128Z,73.60
2017-10-28T20:37:57.576Z,73.60
2017-10-28T20:40:25.042Z,73.40
2017-10-28T20:42:52.491Z,73.30
2017-10-28T20:45:19.924Z,73.10
2017-10-28T20:47:47.360Z,72.90
2017-10-28T20:50:15.403Z,73.10
2017-10-28T20:52:43.832Z,73.10
2017-10-28T20:55:11.288Z,73.10
2017-10-28T20:57:38.742Z,73.20
2017-10-28T21:00:06.227Z,73.10
2017-10-28T21:02:33.708Z,73.00
2017-10-28T21:05:01.128Z,73.10
2017-10-28T21:07:28.563Z,73.20
2017-10-28T21:09:56.000Z,73.10
2017-10-28T21:12:23.445Z,73.30
2017-10-28T21:14:50.873Z,73.40
2017-10-28T21:17:18.307Z,73.30
2017-10-28T21:19:45.754Z,73.40
2017-10-28T21:22:13.184Z,73.40
2017-10-28T21:24:40.635Z,73.10
2017-10-28T21:27:08.048Z,73.20
2017-10-28T21:29:37.332Z,73.30
2017-10-28T21:32:04.792Z,73.20
2017-10-28T21:34:32.230Z,73.20
2017-10-28T21:36:59.655Z,73.30
2017-10-28T21:39:27.105Z,73.30
2017-10-28T21:41:54.524Z,73.30
2017-10-28T21:44:21.979Z,73.20
2017-10-28T21:46:49.428Z,73.40
2017-10-28T21:49:16.876Z,73.60
2017-10-28T21:51:44.309Z,73.60
2017-10-28T21:54:11.751Z,73.70
2017-10-28T21:56:39.179Z,73.70
2017-10-28T21:59:06.591Z,73.80
2017-10-28T22:01:34.047Z,73.80
2017-10-28T22:04:01.577Z,74.00
2017-10-28T22:06:29.010Z,74.20
2017-10-28T22:08:56.497Z,74.30
2017-10-28T22:11:23.935Z,74.30
2017-10-28T22:13:51.368Z,74.50
2017-10-28T22:16:18.893Z,74.70
2017-10-28T22:18:46.320Z,74.70
2017-10-28T22:21:13.807Z,74.70
2017-10-28T22:23:41.384Z,75.20
2017-10-28T22:26:10.883Z,75.80
2017-10-28T22:28:38.306Z,76.20
2017-10-28T22:31:05.752Z,77.00
2017-10-28T22:33:33.592Z,78.10
2017-10-28T22:36:01.018Z,78.20
2017-10-28T22:38:28.514Z,78.40
2017-10-28T22:40:55.955Z,78.60
2017-10-28T22:43:23.380Z,78.20
2017-10-28T22:45:50.846Z,78.70
2017-10-28T22:48:18.563Z,78.60
2017-10-28T22:50:46.009Z,78.30
2017-10-28T22:53:13.453Z,78.50
2017-10-28T22:55:40.923Z,78.60
2017-10-28T22:58:08.375Z,78.60
2017-10-28T23:00:35.795Z,78.50
2017-10-28T23:03:03.226Z,78.50
2017-10-28T23:05:30.684Z,78.40
2017-10-28T23:07:58.144Z,78.50
2017-10-28T23:10:25.578Z,78.50
2017-10-28T23:12:53.044Z,78.40
2017-10-28T23:15:21.247Z,78.40
2017-10-28T23:17:48.683Z,78.20
2017-10-28T23:20:16.167Z,78.00
2017-10-28T23:22:43.631Z,78.00
2017-10-28T23:25:11.052Z,77.90
2017-10-28T23:27:38.867Z,77.40
2017-10-28T23:30:06.326Z,77.50
2017-10-28T23:32:33.762Z,77.30
2017-10-28T23:35:01.184Z,77.10
2017-10-28T23:37:28.709Z,77.10
2017-10-28T23:39:56.136Z,77.10
2017-10-28T23:42:23.581Z,77.10
2017-10-28T23:44:51.419Z,77.30
2017-10-28T23:47:19.444Z,77.30
2017-10-28T23:49:46.944Z,77.30
2017-10-28T23:52:14.504Z,77.20
2017-10-28T23:54:41.927Z,77.10
2017-10-28T23:57:09.401Z,77.40
2017-10-28T23:59:37.705Z,77.30
